Bonao, Dominican Republic
Current Conditions -  °F | °C
As of 4:00 AM on Saturday 25 Oct 2014 (Local Time) from MDST Reporting Station
Haze Haze  
Wind Chill: 77°   Ceiling: 1800
Heat Index: 78°   Visibility: 3mi
Dew Point: 75°   Wind: 3mph
Humidity: 94%   Direction: 210°SSW
Pressure: 29.85"   Gusts: NA
Location:  18.95°N, 70.41°W
Report Text: MDST 250800Z 21003KT 5000 BR OVC018 25/24 Q1011 BR ALL QDS
Loading
Personal Weather Stations






























Interactive Weather Map
Tropical Storm Tracking
New forecast layout! Learn more

10-Day Weather Forecast

Advertisements
Track Severe Weather on mobile